Time;durP1;ratioP1;P1;durP2;ratioP2;P2;SDS_P1;SDS_P2;PMS_P1;PMS_P2;Temp;Humidity;BMP_temperature;BMP_pressure;BME280_temperature;BME280_humidity;BME280_pressure;Samples;Min_cycle;Max_cycle;Signal;HPM_P1;HPM_P2
2021/09/15 00:01:57;;;;;;;17.60;16.23;;;20.70;99.90;;;;;;5055016;28;20444;-59
2021/09/15 00:04:24;;;;;;;17.97;16.60;;;20.70;99.90;;;;;;5054131;28;20468;-58
2021/09/15 00:06:50;;;;;;;19.43;17.50;;;20.70;99.90;;;;;;5054851;28;20516;-58
2021/09/15 00:09:19;;;;;;;16.80;15.53;;;20.70;99.90;;;;;;5037331;28;20453;-59
2021/09/15 00:11:45;;;;;;;16.40;14.90;;;20.70;99.90;;;;;;5035866;28;20449;-57
2021/09/15 00:14:12;;;;;;;17.97;16.70;;;20.60;99.90;;;;;;5036513;28;20833;-57
2021/09/15 00:16:39;;;;;;;16.10;15.00;;;20.60;99.90;;;;;;5037104;28;20480;-57
2021/09/15 00:19:05;;;;;;;16.47;15.20;;;20.70;99.90;;;;;;5052020;28;20448;-58
2021/09/15 00:21:32;;;;;;;15.70;14.60;;;20.60;99.90;;;;;;5054740;28;20448;-56
2021/09/15 00:23:59;;;;;;;16.03;14.97;;;20.60;99.90;;;;;;5054956;28;20464;-56
2021/09/15 00:26:27;;;;;;;20.30;15.50;;;20.60;99.90;;;;;;5055548;28;20444;-57
2021/09/15 00:28:54;;;;;;;16.20;15.00;;;20.60;99.90;;;;;;5041121;28;20456;-59
2021/09/15 00:31:20;;;;;;;16.30;15.20;;;20.60;99.90;;;;;;5034708;28;20456;-57
2021/09/15 00:33:47;;;;;;;16.60;15.43;;;20.60;99.90;;;;;;5034616;28;20953;-60
2021/09/15 00:36:14;;;;;;;16.63;15.43;;;20.60;99.90;;;;;;5035036;28;20484;-59
2021/09/15 00:38:40;;;;;;;15.90;14.57;;;20.60;99.90;;;;;;5047169;28;20444;-59
2021/09/15 00:41:07;;;;;;;15.63;14.57;;;20.60;99.90;;;;;;5055064;28;20455;-59
2021/09/15 00:43:56;;;;;;;15.70;14.60;;;20.60;99.90;;;;;;5054626;28;20460;-57
2021/09/15 00:46:22;;;;;;;15.40;14.17;;;20.60;99.90;;;;;;5055452;28;20445;-57
2021/09/15 00:48:49;;;;;;;16.93;15.73;;;20.60;99.90;;;;;;5042360;28;20865;-58
2021/09/15 00:51:16;;;;;;;16.03;14.90;;;20.60;99.90;;;;;;5035589;28;20539;-57
2021/09/15 00:53:43;;;;;;;17.27;15.77;;;20.70;99.90;;;;;;5034686;28;20475;-56
2021/09/15 00:56:09;;;;;;;15.97;14.77;;;20.70;99.90;;;;;;5034671;28;20481;-61
2021/09/15 00:58:37;;;;;;;18.67;16.80;;;20.60;99.90;;;;;;5044676;28;20451;-60
2021/09/15 01:01:04;;;;;;;16.40;15.27;;;20.60;99.90;;;;;;5051744;28;20452;-60
2021/09/15 01:03:31;;;;;;;15.77;14.60;;;20.60;99.90;;;;;;5052890;28;20440;-57
2021/09/15 01:05:58;;;;;;;15.97;14.83;;;20.60;99.90;;;;;;5053633;28;20448;-61
2021/09/15 01:08:25;;;;;;;15.13;13.87;;;20.60;99.90;;;;;;5043958;28;20441;-61
2021/09/15 01:10:53;;;;;;;17.07;15.77;;;20.60;99.90;;;;;;5033326;28;20449;-61
2021/09/15 01:13:21;;;;;;;16.87;15.57;;;20.70;99.90;;;;;;5033595;28;20448;-61
2021/09/15 01:15:49;;;;;;;15.70;14.70;;;20.70;99.90;;;;;;5034787;28;20456;-61
2021/09/15 01:18:17;;;;;;;16.43;15.33;;;20.70;99.90;;;;;;5044867;28;20444;-61
2021/09/15 01:20:45;;;;;;;15.50;14.20;;;20.70;99.90;;;;;;5056949;28;20440;-61
2021/09/15 01:23:12;;;;;;;16.03;14.80;;;20.70;99.90;;;;;;5056776;28;20447;-59
2021/09/15 01:25:39;;;;;;;15.90;14.60;;;20.60;99.90;;;;;;5055507;28;20444;-61
2021/09/15 01:28:06;;;;;;;15.37;14.00;;;20.60;99.90;;;;;;5049871;28;20551;-61
2021/09/15 01:30:32;;;;;;;15.60;14.40;;;20.60;99.90;;;;;;5036489;28;20456;-61
2021/09/15 01:32:59;;;;;;;14.97;13.87;;;20.60;99.90;;;;;;5036343;28;20452;-61
2021/09/15 01:35:26;;;;;;;15.83;14.57;;;20.70;99.90;;;;;;5036415;28;20460;-61
2021/09/15 01:37:54;;;;;;;17.13;15.70;;;20.60;99.90;;;;;;5039706;28;20993;-60
2021/09/15 01:40:21;;;;;;;17.90;16.60;;;20.60;99.90;;;;;;5054827;28;20858;-61
2021/09/15 01:42:47;;;;;;;16.23;15.13;;;20.60;99.90;;;;;;5056313;28;20456;-61
2021/09/15 01:45:14;;;;;;;16.53;15.27;;;20.50;99.90;;;;;;5056554;28;20475;-61
2021/09/15 01:47:41;;;;;;;16.30;15.13;;;20.50;99.90;;;;;;5054462;28;20436;-59
2021/09/15 01:50:09;;;;;;;16.27;14.87;;;20.50;99.90;;;;;;5036171;28;20796;-61
2021/09/15 01:52:38;;;;;;;17.80;16.43;;;20.50;99.90;;;;;;5035913;28;20451;-60
2021/09/15 01:55:07;;;;;;;16.77;15.47;;;20.50;99.90;;;;;;5040158;28;20474;-61
2021/09/15 01:57:33;;;;;;;17.33;16.13;;;20.50;99.90;;;;;;5055823;28;20484;-57
2021/09/15 02:00:00;;;;;;;19.13;17.30;;;20.50;99.90;;;;;;5056469;28;20451;-60
2021/09/15 02:02:27;;;;;;;18.63;17.13;;;20.50;99.90;;;;;;5056545;28;21147;-60
2021/09/15 02:04:54;;;;;;;17.37;15.80;;;20.50;99.90;;;;;;5052487;28;20461;-56
2021/09/15 02:07:20;;;;;;;16.90;15.60;;;20.50;99.90;;;;;;5035795;28;20445;-60
2021/09/15 02:09:47;;;;;;;17.00;15.80;;;20.50;99.90;;;;;;5036709;28;20449;-61
2021/09/15 02:12:15;;;;;;;16.67;15.37;;;20.50;99.90;;;;;;5035536;28;20449;-57
2021/09/15 02:14:42;;;;;;;16.07;14.97;;;20.50;99.90;;;;;;5035978;28;21007;-61
2021/09/15 02:17:08;;;;;;;16.50;15.30;;;20.50;99.90;;;;;;5055150;28;20483;-60
2021/09/15 02:19:35;;;;;;;17.37;16.00;;;20.50;99.90;;;;;;5055402;28;20447;-61
2021/09/15 02:22:02;;;;;;;17.63;16.27;;;20.50;99.90;;;;;;5055410;28;20973;-58
2021/09/15 02:24:29;;;;;;;16.40;15.20;;;20.40;99.90;;;;;;5055547;28;20468;-60
2021/09/15 02:26:56;;;;;;;17.20;15.70;;;20.40;99.90;;;;;;5035999;28;20445;-60
2021/09/15 02:29:24;;;;;;;17.57;15.87;;;20.30;99.90;;;;;;5035755;28;20946;-59
2021/09/15 02:31:50;;;;;;;17.53;15.60;;;20.30;99.90;;;;;;5035549;28;20457;-58
2021/09/15 02:34:17;;;;;;;16.70;15.40;;;20.30;99.90;;;;;;5035245;28;20457;-59
2021/09/15 02:36:44;;;;;;;16.37;15.10;;;20.30;99.90;;;;;;5052094;28;20490;-59
2021/09/15 02:39:10;;;;;;;16.20;15.00;;;20.30;99.90;;;;;;5055368;28;20437;-61
2021/09/15 02:41:37;;;;;;;16.00;14.70;;;20.20;99.90;;;;;;5055007;28;20444;-59
2021/09/15 02:44:04;;;;;;;16.90;15.40;;;20.30;99.90;;;;;;5054947;28;20847;-60
2021/09/15 02:46:32;;;;;;;17.37;15.73;;;20.20;99.90;;;;;;5040292;28;20495;-61
2021/09/15 02:48:59;;;;;;;18.57;17.07;;;20.20;99.90;;;;;;5036030;28;20931;-60
2021/09/15 02:51:26;;;;;;;18.37;16.93;;;20.20;99.90;;;;;;5035550;28;20456;-57
2021/09/15 02:53:53;;;;;;;17.93;16.53;;;20.20;99.90;;;;;;5035286;28;20465;-60
2021/09/15 02:56:19;;;;;;;17.90;16.30;;;20.20;99.90;;;;;;5048573;28;20448;-59
2021/09/15 02:58:46;;;;;;;17.37;15.97;;;20.20;99.90;;;;;;5054884;28;20480;-58
2021/09/15 03:01:13;;;;;;;18.63;17.00;;;20.20;99.90;;;;;;5055191;28;20455;-60
2021/09/15 03:03:41;;;;;;;17.90;16.50;;;20.20;99.90;;;;;;5055363;28;20464;-61
2021/09/15 03:06:07;;;;;;;17.37;15.77;;;20.10;99.90;;;;;;5044049;28;20456;-61
2021/09/15 03:08:34;;;;;;;17.77;16.17;;;20.10;99.90;;;;;;5035098;28;20445;-58
2021/09/15 03:11:01;;;;;;;18.87;17.10;;;20.10;99.90;;;;;;5035905;28;20445;-59
2021/09/15 03:13:27;;;;;;;17.20;15.80;;;20.10;99.90;;;;;;5035221;28;20449;-60
2021/09/15 03:15:54;;;;;;;18.83;17.23;;;20.10;99.90;;;;;;5044750;28;20455;-61
2021/09/15 03:18:21;;;;;;;17.70;16.30;;;20.10;99.90;;;;;;5056069;28;20480;-60
2021/09/15 03:20:49;;;;;;;20.77;18.70;;;20.10;99.90;;;;;;5055398;28;20444;-60
2021/09/15 03:23:16;;;;;;;19.83;18.27;;;20.10;99.90;;;;;;5055097;28;20444;-61
2021/09/15 03:25:42;;;;;;;19.20;17.60;;;20.10;99.90;;;;;;5047731;28;20874;-61
2021/09/15 03:28:09;;;;;;;18.93;17.43;;;20.10;99.90;;;;;;5035053;28;20445;-59
2021/09/15 03:30:36;;;;;;;19.60;17.90;;;20.00;99.90;;;;;;5034889;28;20449;-60
2021/09/15 03:33:02;;;;;;;21.00;19.30;;;20.00;99.90;;;;;;5034606;28;20452;-62
2021/09/15 03:35:29;;;;;;;18.97;17.30;;;20.00;99.90;;;;;;5040697;28;20525;-61
2021/09/15 03:37:57;;;;;;;20.17;18.33;;;20.00;99.90;;;;;;5054808;28;20852;-60
2021/09/15 03:40:24;;;;;;;18.17;16.57;;;20.00;99.90;;;;;;5055022;28;20440;-58
2021/09/15 03:42:50;;;;;;;19.13;17.40;;;20.00;99.90;;;;;;5054293;28;20812;-61
2021/09/15 03:45:17;;;;;;;19.83;18.07;;;20.00;99.90;;;;;;5050888;28;20504;-60
2021/09/15 03:47:44;;;;;;;19.47;17.90;;;20.00;99.90;;;;;;5035120;28;20446;-59
2021/09/15 03:50:11;;;;;;;19.57;17.87;;;20.00;99.90;;;;;;5034287;28;20449;-61
2021/09/15 03:52:38;;;;;;;20.00;18.30;;;20.00;99.90;;;;;;5034220;28;20814;-60
2021/09/15 03:55:07;;;;;;;19.87;17.77;;;20.00;99.90;;;;;;5035708;28;20475;-59
2021/09/15 03:57:33;;;;;;;18.13;16.63;;;20.00;99.90;;;;;;5054285;28;20480;-61
2021/09/15 04:00:00;;;;;;;18.60;17.10;;;20.00;99.90;;;;;;5054637;28;20452;-59
2021/09/15 04:02:27;;;;;;;17.37;15.87;;;20.00;99.90;;;;;;5054035;28;20456;-59
2021/09/15 04:04:53;;;;;;;18.40;17.00;;;20.00;99.90;;;;;;5053957;28;20475;-62
2021/09/15 04:07:20;;;;;;;18.63;17.03;;;20.00;99.90;;;;;;5054151;28;20436;-60
2021/09/15 04:09:47;;;;;;;19.23;17.60;;;20.00;99.90;;;;;;5054197;28;20444;-60
2021/09/15 04:12:15;;;;;;;17.80;16.40;;;20.00;99.90;;;;;;5054138;28;20818;-61
2021/09/15 04:14:41;;;;;;;18.63;17.10;;;20.00;99.90;;;;;;5078036;22;20499;-60
2021/09/15 04:17:08;;;;;;;18.77;17.30;;;20.00;99.90;;;;;;5065992;28;20475;-59
2021/09/15 04:19:35;;;;;;;17.20;15.67;;;20.10;99.90;;;;;;5051331;28;20444;-61
2021/09/15 04:22:02;;;;;;;19.50;18.00;;;20.00;99.90;;;;;;5051187;28;20440;-61
2021/09/15 04:32:44;;;;;;;19.50;17.50;;;20.00;99.90;;;;;;5031169;28;20416;-59
2021/09/15 04:35:12;;;;;;;18.50;16.80;;;20.00;99.90;;;;;;5031295;28;20461;-61
2021/09/15 04:37:39;;;;;;;19.00;17.20;;;20.00;99.90;;;;;;5031272;28;20484;-59
2021/09/15 04:40:07;;;;;;;17.20;15.90;;;20.00;99.90;;;;;;5031266;28;20880;-61
2021/09/15 04:42:35;;;;;;;17.67;16.10;;;20.00;99.90;;;;;;5030976;28;20817;-60
2021/09/15 04:45:01;;;;;;;17.97;16.57;;;20.00;99.90;;;;;;5031189;28;20465;-61
2021/09/15 04:47:28;;;;;;;18.60;16.83;;;20.00;99.90;;;;;;5031128;28;20449;-61
2021/09/15 04:49:55;;;;;;;19.57;17.53;;;20.00;99.90;;;;;;5031127;28;20448;-59
2021/09/15 04:52:21;;;;;;;18.93;17.37;;;20.00;99.90;;;;;;5034931;28;20449;-61
2021/09/15 04:54:48;;;;;;;17.70;16.20;;;20.00;99.90;;;;;;5034830;28;20997;-57
2021/09/15 04:57:15;;;;;;;17.47;16.03;;;20.00;99.90;;;;;;5034984;28;20819;-62
2021/09/15 04:59:43;;;;;;;17.37;15.70;;;20.00;99.90;;;;;;5034887;28;20452;-56
2021/09/15 05:02:10;;;;;;;18.33;16.37;;;20.00;99.90;;;;;;5034592;28;20445;-61
2021/09/15 05:04:36;;;;;;;17.43;15.90;;;20.00;99.90;;;;;;5034828;28;20807;-61
2021/09/15 05:07:03;;;;;;;17.50;15.90;;;20.00;99.90;;;;;;5034835;28;20443;-59
2021/09/15 05:09:30;;;;;;;18.20;16.60;;;20.00;99.90;;;;;;5034811;28;20445;-61
2021/09/15 05:11:57;;;;;;;17.77;16.47;;;20.00;99.90;;;;;;5034497;28;20437;-58
2021/09/15 05:14:23;;;;;;;19.73;15.67;;;20.00;99.90;;;;;;5034448;28;20538;-58
2021/09/15 05:16:51;;;;;;;17.47;15.93;;;20.00;99.90;;;;;;5034683;28;20452;-58
2021/09/15 05:19:18;;;;;;;18.50;16.60;;;20.00;99.90;;;;;;5034535;28;20973;-60
2021/09/15 05:21:45;;;;;;;18.60;17.00;;;20.00;99.90;;;;;;5034155;28;20969;-58
2021/09/15 05:24:11;;;;;;;21.17;19.40;;;19.90;99.90;;;;;;5034293;28;20897;-61
2021/09/15 05:26:38;;;;;;;20.00;18.37;;;20.00;99.90;;;;;;5034299;28;20846;-58
2021/09/15 05:29:05;;;;;;;17.47;15.73;;;20.00;99.90;;;;;;5034193;28;20825;-61
2021/09/15 05:31:31;;;;;;;17.53;16.03;;;20.00;99.90;;;;;;5034041;28;20457;-57
2021/09/15 05:33:59;;;;;;;17.40;15.90;;;20.00;99.90;;;;;;5034387;28;20453;-58
2021/09/15 05:36:26;;;;;;;18.40;16.90;;;20.00;99.90;;;;;;5034106;28;20441;-57
2021/09/15 05:38:53;;;;;;;18.57;16.43;;;20.00;99.90;;;;;;5034009;28;20477;-55
2021/09/15 05:41:19;;;;;;;17.33;15.77;;;20.10;99.90;;;;;;5034106;28;20453;-56
2021/09/15 05:43:46;;;;;;;17.83;16.40;;;20.10;99.90;;;;;;5033989;28;20445;-55
2021/09/15 05:46:13;;;;;;;16.73;15.07;;;20.10;99.90;;;;;;5033967;28;20441;-58
2021/09/15 05:48:40;;;;;;;17.40;15.90;;;20.20;99.90;;;;;;5034101;28;20456;-58
2021/09/15 05:51:08;;;;;;;16.00;14.77;;;20.20;99.90;;;;;;5033818;28;20453;-55
2021/09/15 05:53:34;;;;;;;16.93;15.43;;;20.20;99.90;;;;;;5033896;28;20437;-57
2021/09/15 05:56:01;;;;;;;17.53;16.13;;;20.30;99.90;;;;;;5033752;28;20468;-56
2021/09/15 05:58:28;;;;;;;18.43;16.70;;;20.30;99.90;;;;;;5033730;28;20480;-55
2021/09/15 06:00:54;;;;;;;17.80;16.10;;;20.30;99.90;;;;;;5033685;28;20456;-59
2021/09/15 06:03:21;;;;;;;17.40;16.00;;;20.30;99.90;;;;;;5032503;28;20452;-56
2021/09/15 06:05:48;;;;;;;18.07;16.33;;;20.40;99.90;;;;;;5033666;28;20469;-57
2021/09/15 06:08:16;;;;;;;18.50;16.60;;;20.50;99.90;;;;;;5033836;28;20448;-57
2021/09/15 06:10:43;;;;;;;18.70;16.90;;;20.60;99.90;;;;;;5034028;28;20527;-58
2021/09/15 06:13:09;;;;;;;17.67;16.27;;;20.60;99.90;;;;;;5033561;28;20441;-56
2021/09/15 06:15:36;;;;;;;17.53;16.07;;;20.70;99.90;;;;;;5033366;28;20492;-58
2021/09/15 06:18:03;;;;;;;17.80;16.37;;;20.70;99.90;;;;;;5033500;28;20483;-58
2021/09/15 06:20:29;;;;;;;16.27;14.97;;;20.80;99.90;;;;;;5033647;28;20449;-59
2021/09/15 06:22:56;;;;;;;16.73;15.30;;;20.80;99.90;;;;;;5033301;28;20452;-55
2021/09/15 06:25:26;;;;;;;16.37;15.07;;;20.80;99.90;;;;;;5033288;28;20465;-56
2021/09/15 06:27:55;;;;;;;15.37;13.87;;;20.70;99.90;;;;;;5033143;28;20829;-58
2021/09/15 06:30:22;;;;;;;15.53;14.00;;;20.60;99.90;;;;;;5033312;28;20449;-57
2021/09/15 06:32:49;;;;;;;18.00;15.03;;;20.60;99.90;;;;;;5033048;28;20455;-58
2021/09/15 06:35:16;;;;;;;14.77;13.57;;;20.60;99.90;;;;;;5033155;28;20881;-55
2021/09/15 06:37:43;;;;;;;18.13;16.20;;;20.60;99.90;;;;;;5033158;28;20477;-60
2021/09/15 06:40:11;;;;;;;16.73;15.27;;;20.60;99.90;;;;;;5033101;28;20452;-60
2021/09/15 06:42:39;;;;;;;15.63;14.20;;;20.50;99.90;;;;;;5032722;28;20452;-60
2021/09/15 06:45:06;;;;;;;16.17;14.97;;;20.50;99.90;;;;;;5032578;28;20473;-60
2021/09/15 06:47:40;;;;;;;15.60;14.20;;;20.40;99.90;;;;;;5032958;28;20441;-60
2021/09/15 06:50:08;;;;;;;16.83;14.93;;;20.50;99.90;;;;;;5032676;28;20845;-59
2021/09/15 06:52:34;;;;;;;18.50;16.90;;;20.50;99.90;;;;;;5032548;28;20445;-59
2021/09/15 06:55:01;;;;;;;16.00;14.50;;;20.60;99.90;;;;;;5032789;28;20476;-60
2021/09/15 06:57:28;;;;;;;14.67;13.57;;;20.70;99.90;;;;;;5032677;28;20437;-60
2021/09/15 06:59:56;;;;;;;15.37;14.10;;;20.80;99.90;;;;;;5032606;28;20491;-60
2021/09/15 07:02:22;;;;;;;14.80;13.60;;;20.80;99.90;;;;;;5032625;28;20503;-58
2021/09/15 07:04:49;;;;;;;15.53;14.23;;;20.90;99.90;;;;;;5032369;28;20471;-60
2021/09/15 07:07:16;;;;;;;16.27;14.87;;;21.00;99.90;;;;;;5032539;28;20449;-59
2021/09/15 07:09:42;;;;;;;14.93;13.53;;;21.10;99.90;;;;;;5032400;28;20449;-59
2021/09/15 07:12:10;;;;;;;14.90;13.60;;;21.10;99.90;;;;;;5032221;28;20456;-58
2021/09/15 07:14:36;;;;;;;15.60;14.20;;;21.10;99.90;;;;;;5031875;28;20484;-59
2021/09/15 07:17:04;;;;;;;16.40;14.80;;;21.00;99.90;;;;;;5032464;28;20449;-60
2021/09/15 07:19:31;;;;;;;15.27;13.90;;;21.00;99.90;;;;;;5032080;28;20484;-60
2021/09/15 07:21:58;;;;;;;13.80;12.70;;;20.90;99.90;;;;;;5032114;28;20861;-59
2021/09/15 07:24:25;;;;;;;13.43;12.30;;;20.90;99.90;;;;;;5032215;28;20480;-60
2021/09/15 07:26:52;;;;;;;14.83;13.43;;;20.90;99.90;;;;;;5032069;28;20445;-60
2021/09/15 07:29:19;;;;;;;15.57;13.67;;;20.90;99.90;;;;;;5032229;28;20446;-60
2021/09/15 07:31:45;;;;;;;14.23;13.03;;;21.00;99.90;;;;;;5031919;28;20449;-60
2021/09/15 07:34:14;;;;;;;15.10;13.80;;;21.00;99.90;;;;;;5032093;28;20835;-60
2021/09/15 07:36:40;;;;;;;13.50;12.33;;;21.10;99.90;;;;;;5032069;28;20445;-60
2021/09/15 07:39:08;;;;;;;14.77;13.37;;;21.20;99.90;;;;;;5031868;28;20480;-60
2021/09/15 07:41:34;;;;;;;14.33;12.87;;;21.30;99.90;;;;;;5031792;28;20445;-60
2021/09/15 07:44:01;;;;;;;13.77;12.63;;;21.30;99.90;;;;;;5031874;28;20469;-60
2021/09/15 07:46:28;;;;;;;13.87;12.63;;;21.40;99.90;;;;;;5032019;28;20460;-60
2021/09/15 07:48:55;;;;;;;14.47;13.27;;;21.40;99.90;;;;;;5031820;28;20441;-60
2021/09/15 07:51:23;;;;;;;15.47;14.13;;;21.40;99.90;;;;;;5031661;28;20453;-60
2021/09/15 07:53:49;;;;;;;13.80;12.63;;;21.50;99.90;;;;;;5031733;28;20450;-56
2021/09/15 07:56:16;;;;;;;13.70;12.60;;;21.60;99.90;;;;;;5031747;28;20812;-58
2021/09/15 07:58:43;;;;;;;14.17;13.07;;;21.60;99.90;;;;;;5031643;28;20511;-54
2021/09/15 08:01:10;;;;;;;14.17;12.87;;;21.80;99.90;;;;;;5031493;28;20445;-57
2021/09/15 08:03:36;;;;;;;12.80;11.67;;;21.90;99.90;;;;;;5031778;28;20437;-59
2021/09/15 08:06:04;;;;;;;13.50;12.40;;;22.00;99.90;;;;;;5031557;28;20468;-57
2021/09/15 08:08:32;;;;;;;13.83;11.43;;;22.00;99.90;;;;;;5031605;28;20957;-60
2021/09/15 08:11:00;;;;;;;12.53;11.53;;;22.20;99.90;;;;;;5031420;28;20452;-60
2021/09/15 08:13:27;;;;;;;13.60;12.60;;;22.40;99.90;;;;;;5031346;28;20456;-59
2021/09/15 08:15:54;;;;;;;14.13;12.93;;;22.60;99.90;;;;;;5031474;28;20488;-57
2021/09/15 08:18:20;;;;;;;16.73;14.93;;;22.70;99.90;;;;;;5031386;28;20484;-59
2021/09/15 08:20:47;;;;;;;13.50;12.60;;;22.80;99.90;;;;;;5031390;28;20456;-59
2021/09/15 08:23:14;;;;;;;15.70;14.60;;;22.80;99.90;;;;;;5031221;28;20448;-60
2021/09/15 08:25:42;;;;;;;14.43;13.23;;;22.90;99.90;;;;;;5032707;28;20472;-58
2021/09/15 08:28:09;;;;;;;14.33;13.23;;;22.90;99.90;;;;;;5035578;28;20448;-59
2021/09/15 08:30:36;;;;;;;13.90;12.80;;;23.00;99.90;;;;;;5035565;28;20448;-55
2021/09/15 08:33:03;;;;;;;13.70;12.80;;;23.00;99.90;;;;;;5035436;28;20440;-56
2021/09/15 08:35:31;;;;;;;13.50;12.63;;;23.00;99.90;;;;;;5035501;28;20472;-55
2021/09/15 08:37:58;;;;;;;14.23;13.23;;;22.90;99.90;;;;;;5035415;28;20532;-60
2021/09/15 08:40:25;;;;;;;15.00;13.67;;;22.80;99.90;;;;;;5035207;28;21014;-57
2021/09/15 08:42:53;;;;;;;14.00;12.97;;;22.60;99.90;;;;;;5035067;28;20453;-57
2021/09/15 08:45:23;;;;;;;14.10;13.10;;;22.60;99.90;;;;;;5035234;28;20473;-60
2021/09/15 08:47:52;;;;;;;12.87;11.70;;;22.50;99.90;;;;;;5035207;28;20471;-60
2021/09/15 08:50:19;;;;;;;12.57;11.77;;;22.40;99.90;;;;;;5035201;28;20440;-60
2021/09/15 08:52:45;;;;;;;12.70;11.70;;;22.30;99.90;;;;;;5035047;28;20445;-59
2021/09/15 08:55:12;;;;;;;11.67;10.97;;;22.20;99.90;;;;;;5035000;28;20468;-54
2021/09/15 08:57:39;;;;;;;11.80;11.10;;;22.20;99.90;;;;;;5034954;28;20941;-58
2021/09/15 09:00:09;;;;;;;11.90;11.20;;;22.10;99.90;;;;;;5034854;28;20488;-53
2021/09/15 09:02:38;;;;;;;12.03;11.23;;;22.00;99.90;;;;;;5034925;28;20451;-58
2021/09/15 09:05:06;;;;;;;11.40;10.70;;;22.00;99.90;;;;;;5034689;28;20985;-57
2021/09/15 09:07:34;;;;;;;11.50;10.43;;;21.90;99.90;;;;;;5034862;28;20444;-58
2021/09/15 09:10:06;;;;;;;10.63;10.00;;;21.90;99.90;;;;;;5034738;28;20861;-59
2021/09/15 09:12:32;;;;;;;13.57;12.63;;;21.90;99.90;;;;;;5034484;28;20544;-60
2021/09/15 09:15:15;;;;;;;11.37;10.77;;;21.90;99.90;;;;;;5034526;28;20472;-60
2021/09/15 09:17:41;;;;;;;10.67;9.97;;;21.80;99.90;;;;;;5034683;28;20506;-57
2021/09/15 09:20:17;;;;;;;12.30;11.60;;;21.90;99.90;;;;;;5034374;28;20484;-57
2021/09/15 09:23:00;;;;;;;12.03;11.33;;;21.80;99.90;;;;;;5034350;28;20440;-58
2021/09/15 09:25:28;;;;;;;12.20;11.20;;;21.80;99.90;;;;;;5034389;28;20473;-58
2021/09/15 09:27:55;;;;;;;11.97;11.27;;;21.90;99.90;;;;;;5034469;28;20445;-57
2021/09/15 09:30:34;;;;;;;12.10;11.20;;;21.90;99.90;;;;;;5034399;28;20810;-59
2021/09/15 09:33:01;;;;;;;13.07;12.27;;;21.90;99.90;;;;;;5034112;28;20444;-54
2021/09/15 09:35:41;;;;;;;11.03;10.33;;;22.00;99.90;;;;;;5034194;28;20917;-59
2021/09/15 09:38:23;;;;;;;12.50;11.80;;;22.10;99.90;;;;;;5033888;28;20452;-59
2021/09/15 09:41:08;;;;;;;14.10;12.87;;;22.00;99.90;;;;;;5034209;28;20476;-58
2021/09/15 09:43:36;;;;;;;14.13;12.80;;;21.90;99.90;;;;;;5034322;28;20444;-55
2021/09/15 09:46:06;;;;;;;14.53;13.10;;;21.70;99.90;;;;;;5033997;28;20472;-58
2021/09/15 09:48:38;;;;;;;14.90;13.67;;;21.50;99.90;;;;;;5034257;28;20445;-58
2021/09/15 09:51:22;;;;;;;15.77;14.47;;;21.40;99.90;;;;;;5034009;28;20453;-57
2021/09/15 09:53:50;;;;;;;16.33;14.97;;;21.40;99.90;;;;;;5033966;28;20447;-57
2021/09/15 09:56:17;;;;;;;14.20;13.10;;;21.60;99.90;;;;;;5033985;28;20956;-58
2021/09/15 09:58:45;;;;;;;15.33;13.70;;;21.90;99.90;;;;;;5034013;28;20440;-56
2021/09/15 10:01:17;;;;;;;21.63;14.43;;;22.20;99.90;;;;;;5033790;28;20444;-58
2021/09/15 10:03:44;;;;;;;14.80;13.60;;;22.50;99.90;;;;;;5033722;28;20813;-58
2021/09/15 10:06:11;;;;;;;13.57;12.67;;;22.60;99.90;;;;;;5033934;28;20444;-58
2021/09/15 10:08:39;;;;;;;14.20;13.20;;;22.60;99.90;;;;;;5033712;28;20449;-57
2021/09/15 10:11:05;;;;;;;13.70;12.63;;;22.80;99.90;;;;;;5033365;28;20456;-57
2021/09/15 10:13:32;;;;;;;15.70;14.50;;;22.80;99.90;;;;;;5033541;28;20456;-57
2021/09/15 10:16:04;;;;;;;15.13;13.80;;;23.00;99.90;;;;;;5033903;28;20485;-55
2021/09/15 10:18:33;;;;;;;15.23;14.03;;;23.00;99.90;;;;;;5033580;28;20445;-55
2021/09/15 10:21:01;;;;;;;13.47;12.67;;;23.00;99.90;;;;;;5033360;28;20843;-57
2021/09/15 10:23:39;;;;;;;14.73;13.70;;;22.90;99.90;;;;;;5033375;28;20938;-56
2021/09/15 10:26:25;;;;;;;15.50;14.30;;;22.90;99.90;;;;;;5033655;28;20515;-59
2021/09/15 10:29:19;;;;;;;14.40;13.50;;;22.70;99.90;;;;;;5043060;28;20451;-59
2021/09/15 10:31:53;;;;;;;14.13;13.33;;;22.60;99.90;;;;;;5052560;28;20451;-58
2021/09/15 10:34:46;;;;;;;14.33;13.23;;;22.50;99.90;;;;;;5053241;28;20468;-59
2021/09/15 10:37:51;;;;;;;14.47;13.47;;;22.40;99.90;;;;;;5053056;28;20439;-59
2021/09/15 10:40:32;;;;;;;14.93;13.93;;;22.20;99.90;;;;;;5052886;28;20483;-59
2021/09/15 10:42:59;;;;;;;13.90;13.00;;;22.00;99.90;;;;;;5052803;28;20444;-60
2021/09/15 10:45:29;;;;;;;14.60;13.50;;;22.00;99.90;;;;;;5052740;28;20464;-59
2021/09/15 10:47:58;;;;;;;14.30;13.10;;;22.00;99.90;;;;;;5052156;28;20448;-59
2021/09/15 10:50:52;;;;;;;14.60;13.57;;;22.30;99.90;;;;;;5052759;28;20476;-59
2021/09/15 10:53:22;;;;;;;15.00;14.07;;;22.50;99.90;;;;;;5052734;28;20479;-58
2021/09/15 10:55:51;;;;;;;14.10;13.10;;;22.80;99.90;;;;;;5052677;28;20973;-58
2021/09/15 10:58:19;;;;;;;13.57;12.77;;;22.80;99.90;;;;;;5052559;28;20475;-59
2021/09/15 11:00:48;;;;;;;15.47;14.27;;;22.90;99.90;;;;;;5052478;28;20484;-56
2021/09/15 11:03:30;;;;;;;16.80;15.60;;;22.80;99.90;;;;;;5052295;28;20475;-56
2021/09/15 11:06:18;;;;;;;15.43;14.43;;;22.70;99.90;;;;;;5052454;28;20556;-58
2021/09/15 11:08:47;;;;;;;16.17;14.80;;;22.60;99.90;;;;;;5052515;28;20491;-59
2021/09/15 11:11:50;;;;;;;15.10;14.00;;;22.70;99.90;;;;;;5052299;28;20476;-55
2021/09/15 11:14:18;;;;;;;15.50;14.50;;;22.80;99.90;;;;;;5052119;28;20503;-59
2021/09/15 11:16:46;;;;;;;16.07;14.70;;;23.00;99.90;;;;;;5052428;28;20539;-57
2021/09/15 11:19:15;;;;;;;16.30;15.20;;;23.00;99.90;;;;;;5052066;28;20452;-59
2021/09/15 11:21:47;;;;;;;15.70;14.70;;;22.90;99.90;;;;;;5051977;28;20452;-58
2021/09/15 11:24:20;;;;;;;15.87;14.87;;;23.20;99.90;;;;;;5052170;28;20467;-54
2021/09/15 11:26:50;;;;;;;18.63;17.43;;;23.50;99.90;;;;;;5052091;28;20444;-57
2021/09/15 11:29:36;;;;;;;15.70;14.77;;;23.60;99.90;;;;;;5052123;28;20443;-59
2021/09/15 11:32:04;;;;;;;20.07;18.67;;;23.60;99.90;;;;;;5052102;28;20448;-59
2021/09/15 11:34:38;;;;;;;18.30;17.00;;;23.50;99.90;;;;;;5051920;28;20492;-59
2021/09/15 11:37:13;;;;;;;20.87;19.37;;;23.50;99.90;;;;;;5051957;28;20448;-58
2021/09/15 11:39:40;;;;;;;21.97;20.37;;;23.30;99.90;;;;;;5051728;28;20479;-59
2021/09/15 11:42:07;;;;;;;22.37;20.60;;;23.30;99.90;;;;;;5063084;28;20448;-63
2021/09/15 11:44:34;;;;;;;22.77;21.17;;;23.70;99.90;;;;;;5065525;28;20464;-57
2021/09/15 11:47:02;;;;;;;24.37;22.57;;;23.70;99.90;;;;;;5051853;28;20440;-54
2021/09/15 11:49:33;;;;;;;27.30;25.20;;;23.80;99.90;;;;;;5051655;28;20444;-60
2021/09/15 11:52:02;;;;;;;24.07;22.20;;;23.80;99.90;;;;;;5051930;28;20455;-61
2021/09/15 11:54:30;;;;;;;26.23;24.23;;;24.00;99.90;;;;;;5068889;28;20467;-58
2021/09/15 11:57:06;;;;;;;25.33;23.43;;;24.00;99.90;;;;;;5055530;28;20506;-62
2021/09/15 11:59:34;;;;;;;26.27;24.43;;;24.10;99.90;;;;;;5053685;28;20483;-54
2021/09/15 12:02:01;;;;;;;26.40;24.30;;;24.50;99.90;;;;;;5051406;28;20854;-56
2021/09/15 12:04:29;;;;;;;26.33;24.53;;;24.70;99.90;;;;;;5051635;28;20460;-56
2021/09/15 12:06:56;;;;;;;27.43;25.20;;;24.80;99.90;;;;;;5051525;28;20943;-58
2021/09/15 12:09:24;;;;;;;26.77;24.87;;;24.60;99.90;;;;;;5051646;28;20448;-56
2021/09/15 12:11:52;;;;;;;27.40;25.33;;;24.50;99.90;;;;;;5051231;28;20479;-59
2021/09/15 12:14:19;;;;;;;26.77;24.83;;;24.50;99.90;;;;;;5053226;28;20476;-60
2021/09/15 12:16:46;;;;;;;27.70;25.70;;;25.20;99.90;;;;;;5058530;28;20459;-58
2021/09/15 12:19:16;;;;;;;26.57;24.67;;;26.00;99.90;;;;;;5062149;28;20447;-61
2021/09/15 12:21:46;;;;;;;30.03;27.93;;;26.50;99.90;;;;;;5052231;28;20448;-57
2021/09/15 12:24:14;;;;;;;28.00;26.30;;;26.50;99.90;;;;;;5051193;28;20632;-60
2021/09/15 12:26:41;;;;;;;29.60;27.63;;;27.10;99.90;;;;;;5051399;28;20933;-60
2021/09/15 12:29:10;;;;;;;29.23;27.53;;;27.00;99.90;;;;;;5051200;28;20962;-56
2021/09/15 12:31:43;;;;;;;30.53;28.43;;;26.80;99.90;;;;;;5050996;28;20451;-60
2021/09/15 12:34:10;;;;;;;31.20;29.10;;;26.70;99.90;;;;;;5051216;28;21008;-59
2021/09/15 12:36:37;;;;;;;31.23;29.10;;;26.80;99.90;;;;;;5051201;28;20482;-54
2021/09/15 12:39:11;;;;;;;29.63;27.73;;;26.40;99.90;;;;;;5051306;28;20452;-60
2021/09/15 12:41:53;;;;;;;29.60;27.60;;;26.00;99.90;;;;;;5050995;28;20557;-59
2021/09/15 12:44:25;;;;;;;29.77;27.67;;;25.80;99.90;;;;;;5051107;28;20464;-58